Ventero, New Mexico
Current Conditions -  °F | °C
As of 5:15 PM on Wednesday 26 Nov 2014 (Local Time) from KSKX Reporting Station
Clear Clear  
Wind Chill: 35°   Ceiling: Unl
Heat Index: 39°   Visibility: 10mi
Dew Point: 21°   Wind: 6mph
Humidity: 49%   Direction: 90°E
Pressure: 30.37"   Gusts: NA
Location:  36.9654°N, 105.429°W
Report Text: KSKX 270015Z AUTO 09005KT 10SM CLR 04/M06 A3037 RMK AO1
Loading
Personal Weather Stations






























Interactive Weather Map New forecast layout! Learn more

10-Day Weather Forecast

Advertisements
Track Severe Weather on mobile